sensor_id;sensor_type;location;lat;lon;timestamp;pressure;altitude;pressure_sealevel;temperature;humidity
21730;BME280;11027;51.030;13.812;2023-06-19T00:00:33;100015.75;;;20.49;nan
21730;BME280;11027;51.030;13.812;2023-06-19T00:02:58;100014.56;;;20.45;nan
21730;BME280;11027;51.030;13.812;2023-06-19T00:05:24;100012.16;;;20.49;nan
21730;BME280;11027;51.030;13.812;2023-06-19T00:07:50;100011.91;;;20.50;nan
21730;BME280;11027;51.030;13.812;2023-06-19T00:10:15;100005.78;;;20.48;nan
21730;BME280;11027;51.030;13.812;2023-06-19T00:12:40;100017.09;;;20.47;nan
21730;BME280;11027;51.030;13.812;2023-06-19T00:15:06;100015.94;;;20.43;nan
21730;BME280;11027;51.030;13.812;2023-06-19T00:17:34;100010.03;;;20.39;nan
21730;BME280;11027;51.030;13.812;2023-06-19T00:20:02;100001.41;;;20.35;nan
21730;BME280;11027;51.030;13.812;2023-06-19T00:22:28;100005.75;;;20.31;nan
21730;BME280;11027;51.030;13.812;2023-06-19T00:24:53;100003.63;;;20.22;nan
21730;BME280;11027;51.030;13.812;2023-06-19T00:27:18;100007.97;;;20.17;nan
21730;BME280;11027;51.030;13.812;2023-06-19T00:29:43;100002.38;;;20.12;nan
21730;BME280;11027;51.030;13.812;2023-06-19T00:32:09;100007.78;;;20.07;nan
21730;BME280;11027;51.030;13.812;2023-06-19T00:34:34;100004.44;;;20.05;nan
21730;BME280;11027;51.030;13.812;2023-06-19T00:36:59;100002.78;;;20.04;nan
21730;BME280;11027;51.030;13.812;2023-06-19T00:39:25;99997.84;;;20.06;nan
21730;BME280;11027;51.030;13.812;2023-06-19T00:41:52;100003.44;;;20.11;nan
21730;BME280;11027;51.030;13.812;2023-06-19T00:44:17;100002.97;;;20.14;nan
21730;BME280;11027;51.030;13.812;2023-06-19T00:46:42;100006.31;;;20.16;nan
21730;BME280;11027;51.030;13.812;2023-06-19T00:49:08;99999.69;;;20.17;nan
21730;BME280;11027;51.030;13.812;2023-06-19T00:51:33;100001.63;;;20.17;nan
21730;BME280;11027;51.030;13.812;2023-06-19T00:53:58;100000.78;;;20.16;nan
21730;BME280;11027;51.030;13.812;2023-06-19T00:56:24;99993.56;;;20.15;nan
21730;BME280;11027;51.030;13.812;2023-06-19T00:58:51;99998.50;;;20.13;nan
21730;BME280;11027;51.030;13.812;2023-06-19T01:01:17;99999.03;;;20.10;nan
21730;BME280;11027;51.030;13.812;2023-06-19T01:03:43;99989.03;;;20.09;nan
21730;BME280;11027;51.030;13.812;2023-06-19T01:06:13;99987.38;;;20.08;nan
21730;BME280;11027;51.030;13.812;2023-06-19T01:08:43;99987.25;;;20.03;nan
21730;BME280;11027;51.030;13.812;2023-06-19T01:11:17;99983.31;;;19.99;nan
21730;BME280;11027;51.030;13.812;2023-06-19T01:14:08;99989.34;;;19.96;nan
21730;BME280;11027;51.030;13.812;2023-06-19T01:16:37;99987.31;;;19.91;nan
21730;BME280;11027;51.030;13.812;2023-06-19T01:19:03;99986.13;;;19.87;nan
21730;BME280;11027;51.030;13.812;2023-06-19T01:21:30;99991.31;;;19.84;nan
21730;BME280;11027;51.030;13.812;2023-06-19T01:23:55;99982.91;;;19.78;nan
21730;BME280;11027;51.030;13.812;2023-06-19T01:26:23;99985.09;;;19.76;nan
21730;BME280;11027;51.030;13.812;2023-06-19T01:28:51;99982.69;;;19.68;nan
21730;BME280;11027;51.030;13.812;2023-06-19T01:31:33;99975.13;;;19.64;nan
21730;BME280;11027;51.030;13.812;2023-06-19T01:34:01;99979.47;;;19.59;nan
21730;BME280;11027;51.030;13.812;2023-06-19T01:36:29;99975.25;;;19.57;nan
21730;BME280;11027;51.030;13.812;2023-06-19T01:38:57;99974.94;;;19.53;nan
21730;BME280;11027;51.030;13.812;2023-06-19T01:41:23;99963.50;;;19.50;nan
21730;BME280;11027;51.030;13.812;2023-06-19T01:43:50;99973.38;;;19.46;nan
21730;BME280;11027;51.030;13.812;2023-06-19T01:46:16;99969.50;;;19.47;nan
21730;BME280;11027;51.030;13.812;2023-06-19T01:48:41;99973.25;;;19.41;nan
21730;BME280;11027;51.030;13.812;2023-06-19T01:51:07;99967.41;;;19.37;nan
21730;BME280;11027;51.030;13.812;2023-06-19T01:53:32;99966.44;;;19.31;nan
21730;BME280;11027;51.030;13.812;2023-06-19T01:55:58;99966.31;;;19.26;nan
21730;BME280;11027;51.030;13.812;2023-06-19T01:58:24;99964.53;;;19.20;nan
21730;BME280;11027;51.030;13.812;2023-06-19T02:00:49;99959.50;;;19.17;nan
21730;BME280;11027;51.030;13.812;2023-06-19T02:03:14;99959.84;;;19.21;nan
21730;BME280;11027;51.030;13.812;2023-06-19T02:05:40;99958.53;;;19.23;nan
21730;BME280;11027;51.030;13.812;2023-06-19T02:08:05;99953.03;;;19.23;nan
21730;BME280;11027;51.030;13.812;2023-06-19T02:10:31;99955.19;;;19.21;nan
21730;BME280;11027;51.030;13.812;2023-06-19T02:12:56;99956.75;;;19.17;nan
21730;BME280;11027;51.030;13.812;2023-06-19T02:15:21;99947.75;;;19.10;nan
21730;BME280;11027;51.030;13.812;2023-06-19T02:17:47;99938.88;;;19.08;nan
21730;BME280;11027;51.030;13.812;2023-06-19T02:20:12;99944.25;;;19.03;nan
21730;BME280;11027;51.030;13.812;2023-06-19T02:22:38;99945.81;;;18.98;nan
21730;BME280;11027;51.030;13.812;2023-06-19T02:25:05;99947.97;;;18.96;nan
21730;BME280;11027;51.030;13.812;2023-06-19T02:27:30;99944.63;;;18.94;nan
21730;BME280;11027;51.030;13.812;2023-06-19T02:29:55;99942.97;;;18.93;nan
21730;BME280;11027;51.030;13.812;2023-06-19T02:32:20;99950.16;;;18.94;nan
21730;BME280;11027;51.030;13.812;2023-06-19T02:34:46;99949.09;;;18.95;nan
21730;BME280;11027;51.030;13.812;2023-06-19T02:37:11;99950.16;;;18.94;nan
21730;BME280;11027;51.030;13.812;2023-06-19T02:39:36;99946.47;;;18.89;nan
21730;BME280;11027;51.030;13.812;2023-06-19T02:42:02;99932.06;;;18.87;nan
21730;BME280;11027;51.030;13.812;2023-06-19T02:44:27;99937.81;;;18.85;nan
21730;BME280;11027;51.030;13.812;2023-06-19T02:46:52;99943.56;;;18.84;nan
21730;BME280;11027;51.030;13.812;2023-06-19T02:49:18;99937.69;;;18.80;nan
21730;BME280;11027;51.030;13.812;2023-06-19T02:51:43;99933.84;;;18.81;nan
21730;BME280;11027;51.030;13.812;2023-06-19T02:54:08;99935.53;;;18.82;nan
21730;BME280;11027;51.030;13.812;2023-06-19T02:56:34;99942.72;;;18.83;nan
21730;BME280;11027;51.030;13.812;2023-06-19T02:58:59;99938.88;;;18.84;nan
21730;BME280;11027;51.030;13.812;2023-06-19T03:01:24;99928.69;;;18.85;nan
21730;BME280;11027;51.030;13.812;2023-06-19T03:03:49;99924.00;;;18.85;nan
21730;BME280;11027;51.030;13.812;2023-06-19T03:06:17;99929.03;;;18.88;nan
21730;BME280;11027;51.030;13.812;2023-06-19T03:08:43;99924.38;;;18.89;nan
21730;BME280;11027;51.030;13.812;2023-06-19T03:11:08;99926.88;;;18.90;nan
21730;BME280;11027;51.030;13.812;2023-06-19T03:13:44;99927.38;;;18.87;nan
21730;BME280;11027;51.030;13.812;2023-06-19T03:16:09;99923.50;;;18.88;nan
21730;BME280;11027;51.030;13.812;2023-06-19T03:18:35;99921.34;;;18.90;nan
21730;BME280;11027;51.030;13.812;2023-06-19T03:21:00;99922.31;;;18.96;nan
21730;BME280;11027;51.030;13.812;2023-06-19T03:23:25;99919.91;;;18.99;nan
21730;BME280;11027;51.030;13.812;2023-06-19T03:25:50;99926.03;;;19.02;nan
21730;BME280;11027;51.030;13.812;2023-06-19T03:28:16;99921.09;;;19.04;nan
21730;BME280;11027;51.030;13.812;2023-06-19T03:30:41;99930.81;;;19.06;nan
21730;BME280;11027;51.030;13.812;2023-06-19T03:33:06;99924.00;;;19.09;nan
21730;BME280;11027;51.030;13.812;2023-06-19T03:35:31;99929.00;;;19.12;nan
21730;BME280;11027;51.030;13.812;2023-06-19T03:37:57;99928.53;;;19.15;nan
21730;BME280;11027;51.030;13.812;2023-06-19T03:40:22;99926.63;;;19.15;nan
21730;BME280;11027;51.030;13.812;2023-06-19T03:42:47;99935.25;;;19.19;nan
21730;BME280;11027;51.030;13.812;2023-06-19T03:45:12;99926.47;;;19.22;nan
21730;BME280;11027;51.030;13.812;2023-06-19T03:47:38;99924.31;;;19.24;nan
21730;BME280;11027;51.030;13.812;2023-06-19T03:50:03;99919.97;;;19.28;nan
21730;BME280;11027;51.030;13.812;2023-06-19T03:52:29;99917.72;;;19.25;nan
21730;BME280;11027;51.030;13.812;2023-06-19T03:54:54;99923.25;;;19.25;nan
21730;BME280;11027;51.030;13.812;2023-06-19T03:57:20;99924.53;;;19.23;nan
21730;BME280;11027;51.030;13.812;2023-06-19T03:59:45;99928.41;;;19.22;nan
21730;BME280;11027;51.030;13.812;2023-06-19T04:02:11;99928.03;;;19.18;nan
21730;BME280;11027;51.030;13.812;2023-06-19T04:04:36;99926.25;;;19.12;nan
21730;BME280;11027;51.030;13.812;2023-06-19T04:07:01;99920.38;;;19.08;nan
21730;BME280;11027;51.030;13.812;2023-06-19T04:09:27;99934.53;;;19.12;nan
21730;BME280;11027;51.030;13.812;2023-06-19T04:11:52;99925.50;;;19.16;nan
21730;BME280;11027;51.030;13.812;2023-06-19T04:14:18;99930.34;;;19.21;nan
21730;BME280;11027;51.030;13.812;2023-06-19T04:16:43;99927.91;;;19.25;nan
21730;BME280;11027;51.030;13.812;2023-06-19T04:19:08;99923.91;;;19.32;nan
21730;BME280;11027;51.030;13.812;2023-06-19T04:21:33;99931.50;;;19.37;nan
21730;BME280;11027;51.030;13.812;2023-06-19T04:23:58;99928.59;;;19.44;nan
21730;BME280;11027;51.030;13.812;2023-06-19T04:26:24;99921.72;;;19.46;nan
21730;BME280;11027;51.030;13.812;2023-06-19T04:28:50;99922.66;;;19.52;nan
21730;BME280;11027;51.030;13.812;2023-06-19T04:31:15;99927.56;;;19.62;nan
21730;BME280;11027;51.030;13.812;2023-06-19T04:33:44;99942.31;;;19.67;nan
21730;BME280;11027;51.030;13.812;2023-06-19T04:36:10;99940.63;;;19.66;nan
21730;BME280;11027;51.030;13.812;2023-06-19T04:38:35;99947.81;;;19.67;nan
21730;BME280;11027;51.030;13.812;2023-06-19T04:41:00;99943.16;;;19.68;nan
21730;BME280;11027;51.030;13.812;2023-06-19T04:43:26;99947.13;;;19.72;nan
21730;BME280;11027;51.030;13.812;2023-06-19T04:45:51;99943.16;;;19.80;nan
21730;BME280;11027;51.030;13.812;2023-06-19T04:48:16;99941.88;;;19.87;nan
21730;BME280;11027;51.030;13.812;2023-06-19T04:50:41;99945.59;;;19.93;nan
21730;BME280;11027;51.030;13.812;2023-06-19T04:53:07;99938.59;;;20.02;nan
21730;BME280;11027;51.030;13.812;2023-06-19T04:55:32;99934.59;;;20.10;nan
21730;BME280;11027;51.030;13.812;2023-06-19T04:57:57;99932.72;;;20.15;nan
21730;BME280;11027;51.030;13.812;2023-06-19T05:00:22;99944.13;;;20.19;nan
21730;BME280;11027;51.030;13.812;2023-06-19T05:02:49;99937.25;;;20.22;nan
21730;BME280;11027;51.030;13.812;2023-06-19T05:05:15;99934.25;;;20.23;nan
21730;BME280;11027;51.030;13.812;2023-06-19T05:07:41;99933.41;;;20.23;nan
21730;BME280;11027;51.030;13.812;2023-06-19T05:10:07;99938.44;;;20.26;nan
21730;BME280;11027;51.030;13.812;2023-06-19T05:12:34;99943.47;;;20.29;nan
21730;BME280;11027;51.030;13.812;2023-06-19T05:14:59;99944.66;;;20.33;nan
21730;BME280;11027;51.030;13.812;2023-06-19T05:17:25;99947.41;;;20.33;nan
21730;BME280;11027;51.030;13.812;2023-06-19T05:19:50;99946.06;;;20.35;nan
21730;BME280;11027;51.030;13.812;2023-06-19T05:22:15;99945.34;;;20.40;nan
21730;BME280;11027;51.030;13.812;2023-06-19T05:24:43;99945.34;;;20.40;nan
21730;BME280;11027;51.030;13.812;2023-06-19T05:27:08;99946.50;;;20.44;nan
21730;BME280;11027;51.030;13.812;2023-06-19T05:29:33;99949.34;;;20.49;nan
21730;BME280;11027;51.030;13.812;2023-06-19T05:31:59;99952.22;;;20.54;nan
21730;BME280;11027;51.030;13.812;2023-06-19T05:34:24;99952.06;;;20.61;nan
21730;BME280;11027;51.030;13.812;2023-06-19T05:36:49;99947.22;;;20.68;nan
21730;BME280;11027;51.030;13.812;2023-06-19T05:39:15;99950.81;;;20.69;nan
21730;BME280;11027;51.030;13.812;2023-06-19T05:41:41;99942.00;;;20.72;nan
21730;BME280;11027;51.030;13.812;2023-06-19T05:44:06;99945.34;;;20.74;nan
21730;BME280;11027;51.030;13.812;2023-06-19T05:46:31;99944.25;;;20.75;nan
21730;BME280;11027;51.030;13.812;2023-06-19T05:48:57;99947.03;;;20.75;nan
21730;BME280;11027;51.030;13.812;2023-06-19T05:51:22;99945.94;;;20.76;nan
21730;BME280;11027;51.030;13.812;2023-06-19T05:53:47;99944.84;;;20.77;nan
21730;BME280;11027;51.030;13.812;2023-06-19T05:56:14;99951.22;;;20.77;nan
21730;BME280;11027;51.030;13.812;2023-06-19T05:58:40;99950.38;;;20.77;nan
21730;BME280;11027;51.030;13.812;2023-06-19T06:01:05;99948.19;;;20.79;nan
21730;BME280;11027;51.030;13.812;2023-06-19T06:03:31;99947.69;;;20.82;nan
21730;BME280;11027;51.030;13.812;2023-06-19T06:05:57;99956.56;;;20.84;nan
21730;BME280;11027;51.030;13.812;2023-06-19T06:08:31;99949.72;;;20.87;nan
21730;BME280;11027;51.030;13.812;2023-06-19T06:10:56;99950.28;;;20.89;nan
21730;BME280;11027;51.030;13.812;2023-06-19T06:13:22;99957.25;;;20.91;nan
21730;BME280;11027;51.030;13.812;2023-06-19T06:15:47;99954.53;;;20.96;nan
21730;BME280;11027;51.030;13.812;2023-06-19T06:18:12;99954.63;;;21.02;nan
21730;BME280;11027;51.030;13.812;2023-06-19T06:20:37;99950.25;;;21.06;nan
21730;BME280;11027;51.030;13.812;2023-06-19T06:23:03;99960.31;;;21.12;nan
21730;BME280;11027;51.030;13.812;2023-06-19T06:25:28;99957.88;;;21.15;nan
21730;BME280;11027;51.030;13.812;2023-06-19T06:27:53;99959.38;;;21.23;nan
21730;BME280;11027;51.030;13.812;2023-06-19T06:30:19;99963.88;;;21.29;nan
21730;BME280;11027;51.030;13.812;2023-06-19T06:32:44;99954.28;;;21.37;nan
21730;BME280;11027;51.030;13.812;2023-06-19T06:35:09;99965.19;;;21.44;nan
21730;BME280;11027;51.030;13.812;2023-06-19T06:37:34;99963.59;;;21.48;nan
21730;BME280;11027;51.030;13.812;2023-06-19T06:40:00;99963.63;;;21.53;nan
21730;BME280;11027;51.030;13.812;2023-06-19T06:42:25;99960.28;;;21.51;nan
21730;BME280;11027;51.030;13.812;2023-06-19T06:44:50;99971.38;;;21.51;nan
21730;BME280;11027;51.030;13.812;2023-06-19T06:47:15;99968.59;;;21.51;nan
21730;BME280;11027;51.030;13.812;2023-06-19T06:49:41;99970.88;;;21.54;nan
21730;BME280;11027;51.030;13.812;2023-06-19T06:52:06;99967.31;;;21.58;nan
21730;BME280;11027;51.030;13.812;2023-06-19T06:54:32;99978.19;;;21.65;nan
21730;BME280;11027;51.030;13.812;2023-06-19T06:56:57;99970.78;;;21.71;nan
21730;BME280;11027;51.030;13.812;2023-06-19T06:59:27;99975.63;;;21.81;nan
21730;BME280;11027;51.030;13.812;2023-06-19T07:01:54;99973.50;;;21.88;nan
21730;BME280;11027;51.030;13.812;2023-06-19T07:04:19;99977.47;;;21.97;nan
21730;BME280;11027;51.030;13.812;2023-06-19T07:06:45;99973.66;;;22.03;nan
21730;BME280;11027;51.030;13.812;2023-06-19T07:09:11;99980.66;;;22.11;nan
21730;BME280;11027;51.030;13.812;2023-06-19T07:11:36;99980.44;;;22.17;nan
21730;BME280;11027;51.030;13.812;2023-06-19T07:14:02;99975.56;;;22.25;nan
21730;BME280;11027;51.030;13.812;2023-06-19T07:16:27;99977.03;;;22.32;nan
21730;BME280;11027;51.030;13.812;2023-06-19T07:18:53;99980.16;;;22.41;nan
21730;BME280;11027;51.030;13.812;2023-06-19T07:21:18;99979.09;;;22.47;nan
21730;BME280;11027;51.030;13.812;2023-06-19T07:23:45;99978.03;;;22.53;nan
21730;BME280;11027;51.030;13.812;2023-06-19T07:26:10;99983.06;;;22.56;nan
21730;BME280;11027;51.030;13.812;2023-06-19T07:28:35;99985.38;;;22.65;nan
21730;BME280;11027;51.030;13.812;2023-06-19T07:31:02;99978.75;;;22.71;nan
21730;BME280;11027;51.030;13.812;2023-06-19T07:33:27;99987.09;;;22.76;nan
21730;BME280;11027;51.030;13.812;2023-06-19T07:35:53;99978.81;;;22.81;nan
21730;BME280;11027;51.030;13.812;2023-06-19T07:38:18;99976.63;;;22.88;nan
21730;BME280;11027;51.030;13.812;2023-06-19T07:40:43;99978.13;;;23.01;nan
21730;BME280;11027;51.030;13.812;2023-06-19T07:43:08;99986.56;;;23.11;nan
21730;BME280;11027;51.030;13.812;2023-06-19T07:45:34;99977.97;;;23.18;nan
21730;BME280;11027;51.030;13.812;2023-06-19T07:47:59;99988.03;;;23.24;nan
21730;BME280;11027;51.030;13.812;2023-06-19T07:50:24;99977.47;;;23.21;nan
21730;BME280;11027;51.030;13.812;2023-06-19T07:52:49;99977.72;;;23.20;nan
21730;BME280;11027;51.030;13.812;2023-06-19T07:55:15;99983.22;;;23.14;nan
21730;BME280;11027;51.030;13.812;2023-06-19T07:57:46;99984.09;;;23.15;nan
21730;BME280;11027;51.030;13.812;2023-06-19T08:00:12;99980.75;;;23.13;nan
21730;BME280;11027;51.030;13.812;2023-06-19T08:02:38;99982.41;;;23.14;nan
21730;BME280;11027;51.030;13.812;2023-06-19T08:05:04;99983.53;;;23.18;nan
21730;BME280;11027;51.030;13.812;2023-06-19T08:07:29;99989.72;;;23.25;nan
21730;BME280;11027;51.030;13.812;2023-06-19T08:09:54;99985.28;;;23.29;nan
21730;BME280;11027;51.030;13.812;2023-06-19T08:12:19;99988.63;;;23.31;nan
21730;BME280;11027;51.030;13.812;2023-06-19T08:14:45;99990.91;;;23.40;nan
21730;BME280;11027;51.030;13.812;2023-06-19T08:17:10;99983.13;;;23.42;nan
21730;BME280;11027;51.030;13.812;2023-06-19T08:19:35;99981.72;;;23.44;nan
21730;BME280;11027;51.030;13.812;2023-06-19T08:22:00;99980.34;;;23.47;nan
21730;BME280;11027;51.030;13.812;2023-06-19T08:24:26;99983.44;;;23.50;nan
21730;BME280;11027;51.030;13.812;2023-06-19T08:26:51;99987.59;;;23.48;nan
21730;BME280;11027;51.030;13.812;2023-06-19T08:29:18;99987.03;;;23.46;nan
21730;BME280;11027;51.030;13.812;2023-06-19T08:31:43;99994.25;;;23.42;nan
21730;BME280;11027;51.030;13.812;2023-06-19T08:34:08;99993.94;;;23.38;nan
21730;BME280;11027;51.030;13.812;2023-06-19T08:36:35;99995.31;;;23.35;nan
21730;BME280;11027;51.030;13.812;2023-06-19T08:39:01;99998.63;;;23.32;nan
21730;BME280;11027;51.030;13.812;2023-06-19T08:41:26;100000.28;;;23.28;nan
21730;BME280;11027;51.030;13.812;2023-06-19T08:43:52;99998.00;;;23.20;nan
21730;BME280;11027;51.030;13.812;2023-06-19T08:46:18;100007.41;;;23.14;nan
21730;BME280;11027;51.030;13.812;2023-06-19T08:48:44;99998.50;;;23.07;nan
21730;BME280;11027;51.030;13.812;2023-06-19T08:51:12;100000.34;;;23.01;nan
21730;BME280;11027;51.030;13.812;2023-06-19T08:53:48;100004.78;;;22.97;nan
21730;BME280;11027;51.030;13.812;2023-06-19T08:56:16;100002.25;;;22.95;nan
21730;BME280;11027;51.030;13.812;2023-06-19T08:58:42;99992.81;;;22.96;nan
21730;BME280;11027;51.030;13.812;2023-06-19T09:01:07;100001.22;;;23.02;nan
21730;BME280;11027;51.030;13.812;2023-06-19T09:03:32;100017.66;;;23.08;nan
21730;BME280;11027;51.030;13.812;2023-06-19T09:06:08;100002.97;;;23.13;nan
21730;BME280;11027;51.030;13.812;2023-06-19T09:08:34;100008.81;;;23.16;nan
21730;BME280;11027;51.030;13.812;2023-06-19T09:11:05;100001.34;;;23.17;nan
21730;BME280;11027;51.030;13.812;2023-06-19T09:13:31;100008.59;;;23.23;nan
21730;BME280;11027;51.030;13.812;2023-06-19T09:16:07;100003.63;;;23.30;nan
21730;BME280;11027;51.030;13.812;2023-06-19T09:18:47;100006.44;;;23.41;nan
21730;BME280;11027;51.030;13.812;2023-06-19T09:21:19;100009.84;;;23.48;nan
21730;BME280;11027;51.030;13.812;2023-06-19T09:23:47;100006.22;;;23.47;nan
21730;BME280;11027;51.030;13.812;2023-06-19T09:26:15;100009.53;;;23.44;nan
21730;BME280;11027;51.030;13.812;2023-06-19T09:28:42;100002.53;;;23.36;nan
21730;BME280;11027;51.030;13.812;2023-06-19T09:31:10;100009.16;;;23.30;nan
21730;BME280;11027;51.030;13.812;2023-06-19T09:33:36;100003.88;;;23.24;nan
21730;BME280;11027;51.030;13.812;2023-06-19T09:36:04;100016.06;;;23.17;nan
21730;BME280;11027;51.030;13.812;2023-06-19T09:38:31;100009.34;;;23.13;nan
21730;BME280;11027;51.030;13.812;2023-06-19T09:41:03;99999.63;;;23.11;nan
21730;BME280;11027;51.030;13.812;2023-06-19T09:43:38;99995.41;;;23.08;nan
21730;BME280;11027;51.030;13.812;2023-06-19T09:46:05;100002.34;;;23.06;nan
21730;BME280;11027;51.030;13.812;2023-06-19T09:48:32;100004.03;;;23.07;nan
21730;BME280;11027;51.030;13.812;2023-06-19T09:51:10;100003.19;;;23.06;nan
21730;BME280;11027;51.030;13.812;2023-06-19T09:53:37;99995.72;;;23.07;nan
21730;BME280;11027;51.030;13.812;2023-06-19T09:56:02;100000.97;;;23.08;nan
21730;BME280;11027;51.030;13.812;2023-06-19T09:58:29;99996.28;;;23.09;nan
21730;BME280;11027;51.030;13.812;2023-06-19T10:00:54;100002.97;;;23.13;nan
21730;BME280;11027;51.030;13.812;2023-06-19T10:03:20;100014.09;;;23.13;nan
21730;BME280;11027;51.030;13.812;2023-06-19T10:05:45;100009.63;;;23.12;nan
21730;BME280;11027;51.030;13.812;2023-06-19T10:08:11;100006.31;;;23.15;nan
21730;BME280;11027;51.030;13.812;2023-06-19T10:10:46;100000.25;;;23.23;nan
21730;BME280;11027;51.030;13.812;2023-06-19T10:13:16;100001.97;;;23.29;nan
21730;BME280;11027;51.030;13.812;2023-06-19T10:15:43;100010.88;;;23.36;nan
21730;BME280;11027;51.030;13.812;2023-06-19T10:18:13;100007.59;;;23.45;nan
21730;BME280;11027;51.030;13.812;2023-06-19T10:20:41;100012.63;;;23.53;nan
21730;BME280;11027;51.030;13.812;2023-06-19T10:23:15;100001.59;;;23.63;nan
21730;BME280;11027;51.030;13.812;2023-06-19T10:25:44;100003.28;;;23.74;nan
21730;BME280;11027;51.030;13.812;2023-06-19T10:30:41;99999.19;;;23.92;nan
21730;BME280;11027;51.030;13.812;2023-06-19T10:33:07;99987.28;;;24.02;nan
21730;BME280;11027;51.030;13.812;2023-06-19T10:35:39;99980.06;;;24.16;nan
21730;BME280;11027;51.030;13.812;2023-06-19T10:38:06;99991.25;;;24.32;nan
21730;BME280;11027;51.030;13.812;2023-06-19T10:40:31;99989.03;;;24.44;nan
21730;BME280;11027;51.030;13.812;2023-06-19T10:42:56;99978.47;;;24.51;nan
21730;BME280;11027;51.030;13.812;2023-06-19T10:45:22;99982.09;;;24.62;nan
21730;BME280;11027;51.030;13.812;2023-06-19T10:47:54;99968.44;;;24.81;nan
21730;BME280;11027;51.030;13.812;2023-06-19T10:50:20;99961.41;;;25.04;nan
21730;BME280;11027;51.030;13.812;2023-06-19T10:52:46;99970.63;;;25.25;nan
21730;BME280;11027;51.030;13.812;2023-06-19T10:55:13;99966.38;;;25.38;nan
21730;BME280;11027;51.030;13.812;2023-06-19T10:57:40;99953.81;;;25.46;nan
21730;BME280;11027;51.030;13.812;2023-06-19T11:00:06;99956.31;;;25.47;nan
21730;BME280;11027;51.030;13.812;2023-06-19T11:02:39;99952.13;;;25.50;nan
21730;BME280;11027;51.030;13.812;2023-06-19T11:05:05;99960.75;;;25.48;nan
21730;BME280;11027;51.030;13.812;2023-06-19T11:07:31;99971.41;;;25.41;nan
21730;BME280;11027;51.030;13.812;2023-06-19T11:09:57;99963.31;;;25.34;nan
21730;BME280;11027;51.030;13.812;2023-06-19T11:12:22;99967.25;;;25.33;nan
21730;BME280;11027;51.030;13.812;2023-06-19T11:14:50;99970.31;;;25.32;nan
21730;BME280;11027;51.030;13.812;2023-06-19T11:17:18;99963.59;;;25.38;nan
21730;BME280;11027;51.030;13.812;2023-06-19T11:19:46;99957.97;;;25.48;nan
21730;BME280;11027;51.030;13.812;2023-06-19T11:22:11;99957.09;;;25.63;nan
21730;BME280;11027;51.030;13.812;2023-06-19T11:24:42;99960.31;;;25.91;nan
21730;BME280;11027;51.030;13.812;2023-06-19T11:27:16;99957.84;;;26.24;nan
21730;BME280;11027;51.030;13.812;2023-06-19T11:29:41;99970.22;;;26.52;nan
21730;BME280;11027;51.030;13.812;2023-06-19T11:32:13;99968.16;;;26.68;nan
21730;BME280;11027;51.030;13.812;2023-06-19T11:34:39;99957.16;;;26.82;nan
21730;BME280;11027;51.030;13.812;2023-06-19T11:37:18;99950.53;;;27.02;nan
21730;BME280;11027;51.030;13.812;2023-06-19T11:39:44;99945.34;;;27.14;nan
21730;BME280;11027;51.030;13.812;2023-06-19T11:42:09;99942.47;;;27.24;nan
21730;BME280;11027;51.030;13.812;2023-06-19T11:44:35;99941.53;;;27.34;nan
21730;BME280;11027;51.030;13.812;2023-06-19T11:47:00;99936.41;;;27.41;nan
21730;BME280;11027;51.030;13.812;2023-06-19T11:49:26;99927.13;;;27.46;nan
21730;BME280;11027;51.030;13.812;2023-06-19T11:51:53;99925.69;;;27.48;nan
21730;BME280;11027;51.030;13.812;2023-06-19T11:54:19;99914.13;;;27.55;nan
21730;BME280;11027;51.030;13.812;2023-06-19T11:56:45;99920.19;;;27.62;nan
21730;BME280;11027;51.030;13.812;2023-06-19T11:59:10;99919.47;;;27.76;nan
21730;BME280;11027;51.030;13.812;2023-06-19T12:01:36;99923.09;;;27.95;nan
21730;BME280;11027;51.030;13.812;2023-06-19T12:04:02;99911.28;;;28.17;nan
21730;BME280;11027;51.030;13.812;2023-06-19T12:06:28;99923.31;;;28.37;nan
21730;BME280;11027;51.030;13.812;2023-06-19T12:08:57;99919.44;;;28.51;nan
21730;BME280;11027;51.030;13.812;2023-06-19T12:11:23;99916.38;;;28.67;nan
21730;BME280;11027;51.030;13.812;2023-06-19T12:13:49;99911.00;;;28.84;nan
21730;BME280;11027;51.030;13.812;2023-06-19T12:16:15;99909.94;;;29.13;nan
21730;BME280;11027;51.030;13.812;2023-06-19T12:18:40;99908.56;;;29.38;nan
21730;BME280;11027;51.030;13.812;2023-06-19T12:21:06;99898.38;;;29.56;nan
21730;BME280;11027;51.030;13.812;2023-06-19T12:23:32;99900.22;;;29.75;nan
21730;BME280;11027;51.030;13.812;2023-06-19T12:25:57;99889.53;;;29.99;nan
21730;BME280;11027;51.030;13.812;2023-06-19T12:28:22;99892.16;;;30.32;nan
21730;BME280;11027;51.030;13.812;2023-06-19T12:30:48;99885.16;;;30.75;nan
21730;BME280;11027;51.030;13.812;2023-06-19T12:33:16;99888.06;;;30.92;nan
21730;BME280;11027;51.030;13.812;2023-06-19T12:35:42;99887.50;;;30.81;nan
21730;BME280;11027;51.030;13.812;2023-06-19T12:38:08;99880.56;;;30.87;nan
21730;BME280;11027;51.030;13.812;2023-06-19T12:40:33;99886.72;;;30.89;nan
21730;BME280;11027;51.030;13.812;2023-06-19T12:42:59;99885.19;;;30.83;nan
21730;BME280;11027;51.030;13.812;2023-06-19T12:45:24;99886.56;;;30.63;nan
21730;BME280;11027;51.030;13.812;2023-06-19T12:47:50;99885.91;;;30.35;nan
21730;BME280;11027;51.030;13.812;2023-06-19T12:50:15;99884.97;;;30.03;nan
21730;BME280;11027;51.030;13.812;2023-06-19T12:52:41;99883.16;;;29.85;nan
21730;BME280;11027;51.030;13.812;2023-06-19T12:55:06;99879.81;;;29.83;nan
21730;BME280;11027;51.030;13.812;2023-06-19T12:57:32;99871.50;;;29.91;nan
21730;BME280;11027;51.030;13.812;2023-06-19T12:59:57;99861.47;;;29.99;nan
21730;BME280;11027;51.030;13.812;2023-06-19T13:02:22;99857.91;;;30.07;nan
21730;BME280;11027;51.030;13.812;2023-06-19T13:04:48;99853.81;;;30.14;nan
21730;BME280;11027;51.030;13.812;2023-06-19T13:07:13;99857.72;;;30.26;nan